Time;durP1;ratioP1;P1;durP2;ratioP2;P2;SDS_P1;SDS_P2;PMS_P1;PMS_P2;Temp;Humidity;BMP_temperature;BMP_pressure;BME280_temperature;BME280_humidity;BME280_pressure;Samples;Min_cycle;Max_cycle;Signal;HPM_P1;HPM_P2
2023/02/08 00:00:51;;;;;;;11.38;8.55;;;4.20;99.90;;;;;;4897147;29;20694;-69
2023/02/08 00:03:20;;;;;;;15.02;9.55;;;4.20;99.90;;;;;;4899673;29;20281;-69
2023/02/08 00:05:46;;;;;;;14.88;11.05;;;4.20;99.90;;;;;;4881696;29;20213;-69
2023/02/08 00:08:17;;;;;;;14.57;9.88;;;4.20;99.90;;;;;;4897706;29;20221;-69
2023/02/08 00:10:45;;;;;;;13.35;9.50;;;4.10;99.90;;;;;;4894058;29;20175;-69
2023/02/08 00:13:14;;;;;;;11.57;9.48;;;4.20;99.90;;;;;;4895750;29;20659;-69
2023/02/08 00:15:41;;;;;;;11.05;8.95;;;4.10;99.90;;;;;;4863416;29;20206;-69
2023/02/08 00:18:12;;;;;;;12.35;9.32;;;4.10;99.90;;;;;;4879055;29;20273;-69
2023/02/08 00:20:42;;;;;;;12.50;8.90;;;4.10;99.90;;;;;;4875626;29;20308;-69
2023/02/08 00:23:13;;;;;;;12.18;9.20;;;4.10;99.90;;;;;;4912719;29;20584;-69
2023/02/08 00:25:40;;;;;;;12.55;8.90;;;4.10;99.90;;;;;;4898056;29;20209;-69
2023/02/08 00:28:07;;;;;;;15.20;10.13;;;4.10;99.90;;;;;;4896520;29;20338;-69
2023/02/08 00:30:38;;;;;;;14.68;9.48;;;4.10;99.90;;;;;;4896994;29;20178;-69
2023/02/08 00:33:07;;;;;;;14.15;9.60;;;4.10;99.90;;;;;;4896767;29;20205;-69
2023/02/08 00:35:33;;;;;;;10.95;8.70;;;4.10;99.90;;;;;;4881040;29;20249;-69
2023/02/08 00:37:59;;;;;;;13.67;9.00;;;4.10;99.90;;;;;;4897315;29;20198;-69
2023/02/08 00:40:30;;;;;;;13.00;8.85;;;4.10;99.90;;;;;;4881469;29;20438;-69
2023/02/08 00:43:01;;;;;;;12.48;7.88;;;4.10;99.90;;;;;;4881534;29;20654;-69
2023/02/08 00:45:29;;;;;;;13.52;9.32;;;4.10;99.90;;;;;;4896794;29;20225;-69
2023/02/08 00:47:56;;;;;;;13.93;8.95;;;4.10;99.90;;;;;;4881057;29;20183;-69
2023/02/08 00:50:29;;;;;;;14.20;9.83;;;4.00;99.90;;;;;;4897066;29;20197;-69
2023/02/08 00:53:04;;;;;;;15.15;9.70;;;4.10;99.90;;;;;;4896653;29;20449;-69
2023/02/08 00:55:34;;;;;;;12.25;8.70;;;4.10;99.90;;;;;;4893102;29;20244;-69
2023/02/08 00:58:02;;;;;;;11.23;8.00;;;4.00;99.90;;;;;;4893730;29;20237;-69
2023/02/08 01:00:29;;;;;;;10.75;8.48;;;4.00;99.90;;;;;;4865318;29;20193;-69
2023/02/08 01:02:55;;;;;;;11.63;8.27;;;4.00;99.90;;;;;;4880568;29;20703;-69
2023/02/08 01:05:23;;;;;;;11.65;7.68;;;4.00;99.90;;;;;;4880570;29;20466;-69
2023/02/08 01:07:49;;;;;;;10.13;7.80;;;4.00;99.90;;;;;;4896024;29;20236;-69
2023/02/08 01:10:19;;;;;;;11.27;8.30;;;4.00;99.90;;;;;;4896321;29;20473;-69
2023/02/08 01:12:45;;;;;;;11.02;8.50;;;4.00;99.90;;;;;;4896054;29;20182;-69
2023/02/08 01:15:16;;;;;;;15.57;9.48;;;4.00;99.90;;;;;;4896358;29;20213;-69
2023/02/08 01:17:42;;;;;;;12.90;10.30;;;4.00;99.90;;;;;;4896246;29;20718;-69
2023/02/08 01:20:11;;;;;;;13.52;8.77;;;4.00;99.90;;;;;;4897267;29;20277;-69
2023/02/08 01:22:39;;;;;;;13.70;9.40;;;4.00;99.90;;;;;;4895899;29;20178;-69
2023/02/08 01:25:10;;;;;;;14.52;8.57;;;3.90;99.90;;;;;;4880394;29;20202;-69
2023/02/08 01:27:36;;;;;;;12.15;8.52;;;3.90;99.90;;;;;;4896171;29;20694;-69
2023/02/08 01:30:10;;;;;;;9.93;7.80;;;3.90;99.90;;;;;;4896454;29;20189;-69
2023/02/08 01:32:36;;;;;;;11.10;8.50;;;3.90;99.90;;;;;;4895679;29;20189;-69
2023/02/08 01:35:05;;;;;;;11.60;8.00;;;3.90;99.90;;;;;;4866114;29;20272;-69
2023/02/08 01:37:35;;;;;;;12.10;8.65;;;3.90;99.90;;;;;;4884415;29;20722;-69
2023/02/08 01:40:02;;;;;;;13.15;8.35;;;3.90;99.90;;;;;;4896270;29;20226;-69
2023/02/08 01:42:30;;;;;;;13.27;8.25;;;3.90;99.90;;;;;;4896814;29;20268;-69
2023/02/08 01:45:16;;;;;;;14.20;7.90;;;3.90;99.90;;;;;;4895721;29;20221;-69
2023/02/08 01:47:49;;;;;;;14.07;8.25;;;3.80;99.90;;;;;;4892908;29;20190;-69
2023/02/08 01:50:18;;;;;;;12.07;7.15;;;3.80;99.90;;;;;;4894826;29;20181;-69
2023/02/08 01:52:48;;;;;;;13.00;8.50;;;3.80;99.90;;;;;;4870447;29;20176;-69
2023/02/08 01:55:31;;;;;;;10.77;7.85;;;3.80;99.90;;;;;;4895830;29;20209;-69
2023/02/08 01:58:06;;;;;;;14.07;8.20;;;3.80;99.90;;;;;;4900287;29;20185;-69
2023/02/08 02:00:35;;;;;;;12.48;8.00;;;3.80;99.90;;;;;;4894768;29;20170;-69
2023/02/08 02:03:05;;;;;;;14.20;8.50;;;3.80;99.90;;;;;;4877752;29;20210;-69
2023/02/08 02:05:44;;;;;;;13.82;8.07;;;3.80;99.90;;;;;;4877352;29;20477;-69
2023/02/08 02:08:11;;;;;;;9.63;7.30;;;3.80;99.90;;;;;;4892609;29;20224;-69
2023/02/08 02:10:38;;;;;;;10.82;7.88;;;3.80;99.90;;;;;;4895517;29;20728;-69
2023/02/08 02:13:09;;;;;;;10.88;8.20;;;3.80;99.90;;;;;;4895511;29;20181;-69
2023/02/08 02:15:38;;;;;;;11.70;7.88;;;3.80;99.90;;;;;;4879764;29;20206;-69
2023/02/08 02:18:06;;;;;;;10.50;7.90;;;3.80;99.90;;;;;;4896572;29;20629;-69
2023/02/08 02:20:50;;;;;;;13.60;9.32;;;3.70;99.90;;;;;;4899286;29;20704;-69
2023/02/08 02:23:31;;;;;;;13.50;8.27;;;3.70;99.90;;;;;;4913162;29;20605;-69
2023/02/08 02:26:24;;;;;;;11.05;7.50;;;3.70;99.90;;;;;;4898840;29;20208;-69
2023/02/08 02:29:29;;;;;;;12.90;8.00;;;3.70;99.90;;;;;;4898362;29;20173;-69
2023/02/08 02:31:58;;;;;;;12.85;8.55;;;3.70;99.90;;;;;;4885354;29;20189;-69
2023/02/08 02:34:33;;;;;;;12.38;8.10;;;3.60;99.90;;;;;;4896120;29;20727;-69
2023/02/08 02:37:02;;;;;;;11.35;8.75;;;3.60;99.90;;;;;;4881679;29;20828;-69
2023/02/08 02:39:45;;;;;;;13.70;8.55;;;3.60;99.90;;;;;;4899064;29;20284;-69
2023/02/08 02:45:42;;;;;;;10.98;8.02;;;3.60;99.90;;;;;;4880602;29;20309;-69
2023/02/08 02:48:26;;;;;;;10.23;7.63;;;3.60;99.90;;;;;;4896285;29;20190;-69
2023/02/08 02:51:24;;;;;;;13.23;8.23;;;3.60;99.90;;;;;;4896766;29;20205;-69
2023/02/08 02:53:59;;;;;;;13.45;8.68;;;3.60;99.90;;;;;;4848687;29;20237;-69
2023/02/08 02:56:38;;;;;;;13.13;7.15;;;3.50;99.90;;;;;;4893194;29;20206;-69
2023/02/08 02:59:09;;;;;;;11.73;8.45;;;3.60;99.90;;;;;;4900229;29;20177;-69
2023/02/08 03:01:35;;;;;;;11.32;7.75;;;3.50;99.90;;;;;;4887257;29;20178;-69
2023/02/08 03:04:39;;;;;;;11.05;8.23;;;3.50;99.90;;;;;;4899824;29;20193;-69
2023/02/08 03:07:19;;;;;;;9.75;7.53;;;3.50;99.90;;;;;;4886659;29;20269;-69
2023/02/08 03:09:59;;;;;;;15.20;7.47;;;3.50;99.90;;;;;;4898643;29;20713;-69
2023/02/08 03:12:48;;;;;;;10.27;7.28;;;3.50;99.90;;;;;;4882762;29;20543;-69
2023/02/08 03:15:17;;;;;;;12.15;7.60;;;3.50;99.90;;;;;;4887177;29;20241;-69
2023/02/08 03:18:22;;;;;;;11.77;7.38;;;3.50;99.90;;;;;;4898671;29;20229;-69
2023/02/08 03:21:05;;;;;;;10.70;8.00;;;3.50;99.90;;;;;;4866909;29;20221;-69
2023/02/08 03:23:42;;;;;;;11.25;7.38;;;3.50;99.90;;;;;;4898749;29;20186;-69
2023/02/08 03:26:30;;;;;;;11.98;7.85;;;3.50;99.90;;;;;;4884971;29;20244;-69
2023/02/08 03:29:28;;;;;;;14.18;8.02;;;3.50;99.90;;;;;;4880922;29;20170;-68
2023/02/08 03:32:09;;;;;;;10.30;6.70;;;3.50;99.90;;;;;;4892005;29;20214;-72
2023/02/08 03:34:41;;;;;;;9.80;7.82;;;3.50;99.90;;;;;;4879546;29;20680;-72
2023/02/08 03:37:12;;;;;;;10.73;7.43;;;3.50;99.90;;;;;;4894469;29;20222;-72
2023/02/08 03:39:45;;;;;;;12.00;7.45;;;3.40;99.90;;;;;;4895023;29;20211;-72
2023/02/08 03:42:20;;;;;;;10.55;8.07;;;3.50;99.90;;;;;;4875495;29;20187;-72
2023/02/08 03:45:00;;;;;;;10.70;7.85;;;3.40;99.90;;;;;;4864060;29;20205;-72
2023/02/08 03:47:31;;;;;;;11.57;7.63;;;3.40;99.90;;;;;;4870744;29;20207;-72
2023/02/08 03:50:02;;;;;;;10.70;7.80;;;3.40;99.90;;;;;;4859939;29;20273;-72
2023/02/08 03:52:30;;;;;;;9.55;6.88;;;3.40;99.90;;;;;;4872893;29;20195;-72
2023/02/08 03:55:10;;;;;;;10.57;7.70;;;3.40;99.90;;;;;;4862560;29;20183;-71
2023/02/08 03:57:57;;;;;;;10.77;7.80;;;3.40;99.90;;;;;;4871143;29;20236;-72
2023/02/08 04:00:23;;;;;;;10.32;7.80;;;3.30;99.90;;;;;;4876047;29;20229;-72
2023/02/08 04:03:06;;;;;;;9.85;6.65;;;3.40;99.90;;;;;;4879641;29;20183;-72
2023/02/08 04:05:37;;;;;;;10.73;7.68;;;3.40;99.90;;;;;;4893365;29;20301;-72
2023/02/08 04:08:05;;;;;;;12.23;7.60;;;3.30;99.90;;;;;;4879263;29;20179;-72
2023/02/08 04:10:31;;;;;;;11.30;8.30;;;3.40;99.90;;;;;;4844824;29;20218;-72
2023/02/08 04:12:57;;;;;;;10.33;6.60;;;3.40;99.90;;;;;;4893928;29;20453;-72
2023/02/08 04:15:26;;;;;;;10.40;8.07;;;3.30;99.90;;;;;;4878231;29;20470;-72
2023/02/08 04:17:52;;;;;;;11.82;7.47;;;3.30;99.90;;;;;;4865411;29;20191;-71
2023/02/08 04:20:23;;;;;;;9.23;7.32;;;3.30;99.90;;;;;;4877329;29;20186;-72
2023/02/08 04:22:49;;;;;;;11.48;7.18;;;3.30;99.90;;;;;;4867583;29;20598;-72
2023/02/08 04:25:18;;;;;;;9.43;7.60;;;3.30;99.90;;;;;;4864241;29;20297;-72
2023/02/08 04:27:44;;;;;;;11.07;7.97;;;3.30;99.90;;;;;;4859603;29;20211;-72
2023/02/08 04:30:11;;;;;;;8.70;7.00;;;3.30;99.90;;;;;;4878095;29;20221;-71
2023/02/08 04:32:37;;;;;;;11.80;7.00;;;3.30;99.90;;;;;;4873041;29;20739;-72
2023/02/08 04:35:03;;;;;;;11.60;6.70;;;3.30;99.90;;;;;;4862544;29;20687;-72
2023/02/08 04:37:34;;;;;;;10.30;7.22;;;3.30;99.90;;;;;;4869761;29;20285;-72
2023/02/08 04:40:04;;;;;;;11.73;7.32;;;3.30;99.90;;;;;;4878154;29;20257;-72
2023/02/08 04:42:31;;;;;;;10.52;7.00;;;3.30;99.90;;;;;;4877549;29;20186;-72
2023/02/08 04:44:57;;;;;;;9.68;6.45;;;3.20;99.90;;;;;;4862061;29;20214;-72
2023/02/08 04:47:22;;;;;;;8.93;6.70;;;3.20;99.90;;;;;;4857722;29;20673;-72
2023/02/08 04:49:49;;;;;;;11.00;7.23;;;3.30;99.90;;;;;;4874894;29;20205;-72
2023/02/08 04:52:14;;;;;;;9.63;7.20;;;3.20;99.90;;;;;;4862358;29;20428;-72
2023/02/08 04:54:40;;;;;;;11.20;7.73;;;3.20;99.90;;;;;;4862983;29;20193;-72
2023/02/08 04:57:08;;;;;;;10.77;7.00;;;3.20;99.90;;;;;;4882864;29;20950;-72
2023/02/08 04:59:33;;;;;;;9.18;6.60;;;3.20;99.90;;;;;;4874755;29;20621;-71
2023/02/08 05:02:04;;;;;;;9.90;6.50;;;3.20;99.90;;;;;;4872073;29;20178;-72
2023/02/08 05:04:30;;;;;;;8.93;6.05;;;3.20;99.90;;;;;;4888796;29;20270;-72
2023/02/08 05:06:59;;;;;;;9.73;6.82;;;3.20;99.90;;;;;;4877399;29;20195;-72
2023/02/08 05:09:27;;;;;;;7.72;6.40;;;3.20;99.90;;;;;;4877907;29;20221;-72
2023/02/08 05:11:55;;;;;;;8.25;5.80;;;3.20;99.90;;;;;;4893141;29;20179;-71
2023/02/08 05:14:21;;;;;;;8.23;6.55;;;3.20;99.90;;;;;;4858670;29;20198;-72
2023/02/08 05:16:47;;;;;;;12.80;7.50;;;3.20;99.90;;;;;;4863609;29;20559;-72
2023/02/08 05:19:13;;;;;;;6.80;5.53;;;3.10;99.90;;;;;;4859076;29;20500;-72
2023/02/08 05:21:39;;;;;;;7.82;6.00;;;3.10;99.90;;;;;;4868983;29;20430;-72
2023/02/08 05:24:11;;;;;;;9.35;6.53;;;3.10;99.90;;;;;;4847772;29;20218;-72
2023/02/08 05:26:38;;;;;;;11.02;7.43;;;3.10;99.90;;;;;;4871768;29;20686;-71
2023/02/08 05:29:04;;;;;;;10.32;7.03;;;3.10;99.90;;;;;;4843508;29;20316;-72
2023/02/08 05:31:30;;;;;;;9.97;6.87;;;3.10;99.90;;;;;;4859408;29;20281;-72
2023/02/08 05:33:59;;;;;;;8.82;6.65;;;3.10;99.90;;;;;;4878765;29;20821;-72
2023/02/08 05:36:25;;;;;;;9.70;6.15;;;3.10;99.90;;;;;;4862842;29;20207;-70
2023/02/08 05:38:53;;;;;;;9.20;6.15;;;3.10;99.90;;;;;;4874235;29;20219;-72
2023/02/08 05:41:19;;;;;;;9.75;6.70;;;3.00;99.90;;;;;;4874216;29;20184;-71
2023/02/08 05:43:47;;;;;;;8.98;5.88;;;3.00;99.90;;;;;;4862836;29;20299;-72
2023/02/08 05:46:16;;;;;;;9.25;6.55;;;3.10;99.90;;;;;;4874217;29;20581;-72
2023/02/08 05:48:42;;;;;;;8.30;6.70;;;3.00;99.90;;;;;;4898067;29;20195;-77
2023/02/08 05:51:10;;;;;;;8.40;5.75;;;3.00;99.90;;;;;;4876019;29;20435;-76
2023/02/08 05:53:37;;;;;;;7.63;6.57;;;3.00;99.90;;;;;;4876253;29;20185;-71
2023/02/08 05:56:05;;;;;;;8.63;6.13;;;3.00;99.90;;;;;;4872773;29;20689;-71
2023/02/08 05:58:34;;;;;;;9.05;6.50;;;3.00;99.90;;;;;;4876425;29;20185;-71
2023/02/08 06:01:10;;;;;;;11.80;7.03;;;3.00;99.90;;;;;;4848546;29;20190;-72
2023/02/08 06:03:37;;;;;;;8.80;6.68;;;3.00;99.90;;;;;;4841496;29;20676;-71
2023/02/08 06:06:06;;;;;;;8.38;6.20;;;3.00;99.90;;;;;;4872172;29;20688;-71
2023/02/08 06:08:34;;;;;;;7.05;6.00;;;3.00;99.90;;;;;;4857449;29;20334;-71
2023/02/08 06:11:05;;;;;;;8.38;6.05;;;3.00;99.90;;;;;;4885182;29;20214;-71
2023/02/08 06:13:38;;;;;;;7.88;6.53;;;3.00;99.90;;;;;;4892833;29;20212;-72
2023/02/08 06:16:05;;;;;;;10.57;7.03;;;3.00;99.90;;;;;;4858228;29;20591;-72
2023/02/08 06:18:31;;;;;;;8.05;6.25;;;3.00;99.90;;;;;;4894619;29;20764;-72
2023/02/08 06:21:00;;;;;;;8.77;6.45;;;3.00;99.90;;;;;;4879605;29;20621;-72
2023/02/08 06:23:26;;;;;;;8.17;5.87;;;3.00;99.90;;;;;;4875232;29;20206;-72
2023/02/08 06:25:52;;;;;;;7.88;5.65;;;2.90;99.90;;;;;;4860552;29;20817;-71
2023/02/08 06:28:19;;;;;;;10.73;6.30;;;2.90;99.90;;;;;;4874236;29;20215;-72
2023/02/08 06:30:45;;;;;;;7.25;5.75;;;2.90;99.90;;;;;;4856104;29;20450;-72
2023/02/08 06:33:11;;;;;;;8.57;5.97;;;2.90;99.90;;;;;;4880736;29;20692;-71
2023/02/08 06:35:39;;;;;;;8.20;6.33;;;2.90;99.90;;;;;;4836255;29;20256;-71
2023/02/08 06:38:07;;;;;;;8.93;5.93;;;2.90;99.90;;;;;;4876812;29;20414;-71
2023/02/08 06:40:38;;;;;;;8.98;6.15;;;2.90;99.90;;;;;;4861545;29;20653;-71
2023/02/08 06:43:07;;;;;;;7.95;5.72;;;2.90;99.90;;;;;;4860791;29;20555;-73
2023/02/08 06:45:33;;;;;;;6.85;5.63;;;2.90;99.90;;;;;;4857572;29;20215;-74
2023/02/08 06:47:59;;;;;;;7.43;5.65;;;2.90;99.90;;;;;;4873725;29;20182;-74
2023/02/08 06:50:31;;;;;;;8.80;6.47;;;2.90;99.90;;;;;;4862268;29;20179;-75
2023/02/08 06:52:59;;;;;;;9.43;6.57;;;2.80;99.90;;;;;;4864081;29;20198;-75
2023/02/08 06:55:25;;;;;;;9.60;6.05;;;2.90;99.90;;;;;;4874380;29;20665;-75
2023/02/08 06:57:57;;;;;;;8.57;5.90;;;2.80;99.90;;;;;;4858945;29;20255;-75
2023/02/08 07:00:23;;;;;;;11.23;5.50;;;2.80;99.90;;;;;;4875145;29;20458;-75
2023/02/08 07:02:51;;;;;;;8.35;6.15;;;2.80;99.90;;;;;;4865713;29;20214;-73
2023/02/08 07:05:20;;;;;;;8.50;5.95;;;2.80;99.90;;;;;;4855658;29;20285;-75
2023/02/08 07:07:49;;;;;;;8.60;5.90;;;2.80;99.90;;;;;;4878045;29;20175;-74
2023/02/08 07:10:16;;;;;;;8.80;5.85;;;2.80;99.90;;;;;;4868749;29;20218;-75
2023/02/08 07:12:44;;;;;;;8.93;5.88;;;2.80;99.90;;;;;;4865455;29;20258;-75
2023/02/08 07:15:12;;;;;;;9.35;6.45;;;2.80;99.90;;;;;;4865159;29;20198;-74
2023/02/08 07:17:38;;;;;;;10.15;6.15;;;2.80;99.90;;;;;;4881088;29;20190;-75
2023/02/08 07:20:04;;;;;;;7.70;6.20;;;2.80;99.90;;;;;;4881695;29;20267;-75
2023/02/08 07:22:32;;;;;;;9.40;6.30;;;2.80;99.90;;;;;;4865431;29;20584;-74
2023/02/08 07:24:58;;;;;;;8.07;5.72;;;2.80;99.90;;;;;;4883394;29;20739;-75
2023/02/08 07:27:25;;;;;;;7.00;5.40;;;2.80;99.90;;;;;;4910177;29;20194;-75
2023/02/08 07:29:51;;;;;;;8.68;6.07;;;2.70;99.90;;;;;;4896187;29;20462;-75
2023/02/08 07:32:17;;;;;;;16.58;6.45;;;2.70;99.90;;;;;;4880695;29;20320;-75
2023/02/08 07:34:45;;;;;;;10.82;6.07;;;2.70;99.90;;;;;;4865451;29;20182;-75
2023/02/08 07:37:13;;;;;;;9.30;6.38;;;2.70;99.90;;;;;;4875506;29;20215;-75
2023/02/08 07:39:44;;;;;;;8.03;5.23;;;2.70;99.90;;;;;;4855203;29;20671;-75
2023/02/08 07:42:17;;;;;;;9.50;5.32;;;2.70;99.90;;;;;;4864230;29;20459;-75
2023/02/08 07:44:53;;;;;;;10.25;6.30;;;2.70;99.90;;;;;;4880687;29;20194;-75
2023/02/08 07:47:19;;;;;;;7.87;5.47;;;2.70;99.90;;;;;;4880841;29;20199;-74
2023/02/08 07:49:45;;;;;;;6.90;5.23;;;2.70;99.90;;;;;;4880792;29;20455;-75
2023/02/08 07:52:11;;;;;;;10.63;5.55;;;2.70;99.90;;;;;;4873897;29;20432;-75
2023/02/08 07:54:38;;;;;;;11.27;6.43;;;2.70;99.90;;;;;;4862319;29;20267;-75
2023/02/08 07:57:04;;;;;;;8.90;6.20;;;2.70;99.90;;;;;;4862737;29;20202;-75
2023/02/08 07:59:30;;;;;;;8.00;6.30;;;2.70;99.90;;;;;;4880137;29;20170;-75
2023/02/08 08:01:58;;;;;;;7.20;5.20;;;2.70;99.90;;;;;;4882454;29;20186;-75
2023/02/08 08:04:24;;;;;;;9.80;6.97;;;2.70;99.90;;;;;;4897838;29;20221;-74
2023/02/08 08:06:52;;;;;;;8.15;5.47;;;2.70;99.90;;;;;;4898010;29;20694;-72
2023/02/08 08:09:19;;;;;;;8.25;6.00;;;2.60;99.90;;;;;;4898199;29;20190;-73
2023/02/08 08:11:45;;;;;;;9.70;5.53;;;2.70;99.90;;;;;;4897744;29;20544;-73
2023/02/08 08:14:16;;;;;;;7.00;5.90;;;2.70;99.90;;;;;;4899725;29;20242;-73
2023/02/08 08:16:46;;;;;;;10.00;5.85;;;2.60;99.90;;;;;;4898648;29;20233;-73
2023/02/08 08:19:18;;;;;;;7.93;5.60;;;2.60;99.90;;;;;;4899544;29;20204;-73
2023/02/08 08:21:46;;;;;;;9.82;6.15;;;2.70;99.90;;;;;;4898642;29;20197;-73
2023/02/08 08:24:12;;;;;;;9.77;6.50;;;2.60;99.90;;;;;;4899902;29;20161;-73
2023/02/08 08:26:40;;;;;;;10.98;6.10;;;2.60;99.90;;;;;;4898556;29;20451;-73
2023/02/08 08:29:16;;;;;;;8.15;6.35;;;2.70;99.90;;;;;;4883186;29;20188;-73
2023/02/08 08:31:43;;;;;;;7.30;6.05;;;2.60;99.90;;;;;;4898323;29;20213;-73
2023/02/08 08:34:09;;;;;;;7.60;5.80;;;2.60;99.90;;;;;;4898377;29;20189;-73
2023/02/08 08:36:35;;;;;;;7.63;5.78;;;2.60;99.90;;;;;;4867809;29;20212;-73
2023/02/08 08:39:06;;;;;;;9.85;5.93;;;2.60;99.90;;;;;;4913528;29;20650;-73
2023/02/08 08:41:32;;;;;;;11.93;6.35;;;2.60;99.90;;;;;;4913838;29;20570;-74
2023/02/08 08:43:58;;;;;;;7.97;5.70;;;2.60;99.90;;;;;;4898005;29;20182;-73
2023/02/08 08:46:24;;;;;;;9.83;6.80;;;2.60;99.90;;;;;;4898041;29;20201;-73
2023/02/08 08:48:50;;;;;;;9.25;6.55;;;2.60;99.90;;;;;;4897890;29;20457;-73
2023/02/08 08:51:21;;;;;;;11.90;7.05;;;2.60;99.90;;;;;;4897996;29;20162;-73
2023/02/08 08:53:49;;;;;;;9.70;6.57;;;2.60;99.90;;;;;;4899075;29;20166;-73
2023/02/08 08:56:15;;;;;;;10.02;6.80;;;2.60;99.90;;;;;;4897991;29;20549;-73
2023/02/08 08:58:42;;;;;;;11.20;7.40;;;2.70;99.90;;;;;;4897938;29;20189;-73
2023/02/08 09:01:08;;;;;;;8.73;6.40;;;2.70;99.90;;;;;;4885433;29;20191;-73
2023/02/08 09:03:39;;;;;;;9.65;6.50;;;2.60;99.90;;;;;;4870227;29;20190;-75
2023/02/08 09:06:10;;;;;;;10.95;6.55;;;2.70;99.90;;;;;;4878618;29;20214;-72
2023/02/08 09:08:39;;;;;;;11.18;7.15;;;2.70;99.90;;;;;;4877614;29;20293;-75
2023/02/08 09:11:13;;;;;;;10.57;7.70;;;2.70;99.90;;;;;;4878354;29;20179;-74
2023/02/08 09:13:42;;;;;;;8.60;6.05;;;2.70;99.90;;;;;;4878703;29;20205;-74
2023/02/08 09:16:17;;;;;;;9.75;6.30;;;2.70;99.90;;;;;;4894562;29;20554;-73
2023/02/08 09:18:47;;;;;;;10.90;7.15;;;2.70;99.90;;;;;;4877897;29;20178;-75
2023/02/08 09:21:18;;;;;;;9.32;6.40;;;2.70;99.90;;;;;;4867811;29;20206;-74
2023/02/08 09:23:46;;;;;;;10.75;7.00;;;2.70;99.90;;;;;;4844650;29;20181;-74
2023/02/08 09:26:14;;;;;;;11.85;7.13;;;2.70;99.90;;;;;;4873858;29;20213;-74
2023/02/08 09:28:40;;;;;;;12.88;6.22;;;2.70;99.90;;;;;;4897230;29;20257;-74
2023/02/08 09:31:17;;;;;;;9.23;6.50;;;2.70;99.90;;;;;;4884781;29;20544;-74
2023/02/08 09:33:46;;;;;;;9.13;6.35;;;2.70;99.90;;;;;;4878596;29;20169;-75
2023/02/08 09:36:15;;;;;;;8.23;5.75;;;2.80;99.90;;;;;;4870170;29;20276;-74
2023/02/08 09:38:48;;;;;;;10.30;6.28;;;2.80;99.90;;;;;;4875036;29;20226;-73
2023/02/08 09:41:51;;;;;;;8.90;5.97;;;2.80;99.90;;;;;;4844284;29;20199;-74
2023/02/08 09:44:32;;;;;;;8.95;5.82;;;2.80;99.90;;;;;;4875554;29;20415;-74
2023/02/08 09:47:08;;;;;;;9.57;6.32;;;2.80;99.90;;;;;;4844453;29;20266;-72
2023/02/08 09:49:52;;;;;;;8.82;5.82;;;2.80;99.90;;;;;;4861037;29;20512;-72
2023/02/08 09:52:29;;;;;;;6.80;5.35;;;2.80;99.90;;;;;;4859756;29;20673;-72
2023/02/08 09:55:00;;;;;;;9.35;6.55;;;2.80;99.90;;;;;;4858001;29;20280;-72
2023/02/08 09:57:31;;;;;;;8.77;5.65;;;2.80;99.90;;;;;;4895304;29;20202;-72
2023/02/08 10:00:05;;;;;;;9.93;6.18;;;2.80;99.90;;;;;;4893610;29;20194;-72
2023/02/08 10:02:36;;;;;;;8.75;5.75;;;2.80;99.90;;;;;;4879502;29;20701;-72
2023/02/08 10:05:13;;;;;;;9.90;6.15;;;2.90;99.90;;;;;;4862824;29;20233;-72
2023/02/08 10:07:40;;;;;;;7.40;5.45;;;2.90;99.90;;;;;;4847467;29;20217;-72
2023/02/08 10:10:30;;;;;;;7.45;5.20;;;2.90;99.90;;;;;;4879056;29;20162;-72
2023/02/08 10:13:12;;;;;;;9.10;5.50;;;2.90;99.90;;;;;;4878418;29;20198;-73
2023/02/08 10:15:50;;;;;;;8.10;5.85;;;3.00;99.90;;;;;;4877680;29;20282;-72
2023/02/08 10:18:46;;;;;;;6.22;4.85;;;2.90;99.90;;;;;;4868529;29;20265;-72
2023/02/08 10:21:17;;;;;;;8.90;5.20;;;2.90;99.90;;;;;;4859818;29;20232;-72
2023/02/08 10:24:16;;;;;;;6.43;4.97;;;2.90;99.90;;;;;;4844512;29;20277;-72
2023/02/08 10:26:52;;;;;;;7.63;5.20;;;3.00;99.90;;;;;;4844160;29;20306;-72
2023/02/08 10:29:25;;;;;;;7.60;4.57;;;3.00;99.90;;;;;;4860469;29;20262;-75
2023/02/08 10:32:10;;;;;;;7.97;5.63;;;3.00;99.90;;;;;;4844234;29;20278;-76
2023/02/08 10:34:39;;;;;;;7.90;5.65;;;3.00;99.90;;;;;;4843808;29;20239;-73
2023/02/08 10:37:23;;;;;;;6.53;4.78;;;3.00;99.90;;;;;;4863825;29;20246;-74
2023/02/08 10:39:53;;;;;;;7.72;5.15;;;3.00;99.90;;;;;;4878071;29;20183;-74
2023/02/08 10:42:27;;;;;;;7.30;5.05;;;3.00;99.90;;;;;;4878223;29;20606;-73
2023/02/08 10:45:26;;;;;;;7.50;4.95;;;3.00;99.90;;;;;;4864001;29;20230;-72
2023/02/08 10:48:10;;;;;;;6.78;4.43;;;3.10;99.90;;;;;;4856911;29;20733;-72
2023/02/08 10:50:43;;;;;;;6.40;4.30;;;3.10;99.90;;;;;;4862881;29;20201;-72
2023/02/08 10:53:15;;;;;;;10.35;4.65;;;3.10;99.90;;;;;;4864008;29;20163;-72
2023/02/08 10:55:46;;;;;;;5.50;4.47;;;3.10;99.90;;;;;;4878159;29;20206;-72
2023/02/08 10:58:18;;;;;;;8.02;4.55;;;3.10;99.90;;;;;;4862800;29;20389;-72
2023/02/08 11:00:48;;;;;;;6.90;5.03;;;3.10;99.90;;;;;;4863961;29;20231;-72
2023/02/08 11:03:22;;;;;;;6.57;4.85;;;3.10;99.90;;;;;;4863709;29;20199;-72
2023/02/08 11:05:51;;;;;;;6.85;4.32;;;3.20;99.90;;;;;;4892407;29;20734;-75
2023/02/08 11:08:23;;;;;;;8.15;4.70;;;3.20;99.90;;;;;;4881210;29;20645;-76
2023/02/08 11:10:59;;;;;;;6.32;4.40;;;3.20;99.90;;;;;;4850267;29;20186;-75
2023/02/08 11:13:32;;;;;;;7.22;4.85;;;3.20;99.90;;;;;;4881514;29;20578;-76
2023/02/08 11:16:01;;;;;;;4.82;3.40;;;3.20;99.90;;;;;;4882131;29;20602;-76
2023/02/08 11:18:34;;;;;;;5.00;3.90;;;3.30;99.90;;;;;;4865360;29;20205;-76
2023/02/08 11:21:09;;;;;;;6.13;4.13;;;3.20;99.90;;;;;;4880949;29;20261;-77
2023/02/08 11:23:41;;;;;;;5.20;3.97;;;3.30;99.90;;;;;;4881934;29;20657;-74
2023/02/08 11:26:20;;;;;;;5.10;4.45;;;3.30;99.90;;;;;;4867497;29;20719;-74
2023/02/08 11:29:17;;;;;;;5.10;3.72;;;3.30;99.90;;;;;;4862647;29;20183;-74
2023/02/08 11:32:00;;;;;;;4.60;4.10;;;3.30;99.90;;;;;;4846600;29;20735;-73
2023/02/08 11:34:38;;;;;;;6.18;4.00;;;3.30;99.90;;;;;;4939280;23;20256;-71
2023/02/08 11:37:27;;;;;;;5.25;3.85;;;3.30;99.90;;;;;;4891380;29;20683;-71
2023/02/08 11:40:00;;;;;;;6.25;3.50;;;3.40;99.90;;;;;;4861162;29;20550;-71
2023/02/08 11:42:43;;;;;;;6.15;3.95;;;3.40;99.90;;;;;;4880396;29;20210;-71
2023/02/08 11:45:20;;;;;;;5.15;3.75;;;3.40;99.90;;;;;;4868794;29;20203;-71
2023/02/08 11:47:47;;;;;;;5.95;3.90;;;3.40;99.90;;;;;;4869101;29;20234;-71
2023/02/08 11:50:32;;;;;;;4.65;4.10;;;3.40;99.90;;;;;;4876909;29;20210;-71
2023/02/08 11:53:16;;;;;;;4.68;3.40;;;3.50;99.90;;;;;;4894942;29;20182;-71
2023/02/08 11:55:42;;;;;;;5.40;4.25;;;3.50;99.90;;;;;;4865392;29;20218;-71
2023/02/08 11:58:23;;;;;;;5.27;3.40;;;3.50;99.90;;;;;;4861894;29;20187;-71
2023/02/08 12:00:57;;;;;;;3.72;3.35;;;3.50;99.90;;;;;;4872619;29;20467;-74
2023/02/08 12:03:34;;;;;;;5.55;3.80;;;3.50;99.90;;;;;;4867927;29;20194;-75
2023/02/08 12:06:13;;;;;;;4.30;3.30;;;3.60;99.90;;;;;;4898297;29;20288;-73
2023/02/08 12:08:57;;;;;;;10.25;3.70;;;3.60;99.90;;;;;;4879858;29;20163;-73
2023/02/08 12:11:39;;;;;;;4.85;3.60;;;3.60;99.90;;;;;;4878714;29;20210;-73
2023/02/08 12:14:17;;;;;;;4.00;3.58;;;3.60;99.90;;;;;;4868483;29;20199;-73
2023/02/08 12:17:02;;;;;;;4.78;3.90;;;3.60;99.90;;;;;;4891601;29;20207;-73
2023/02/08 12:19:56;;;;;;;5.15;3.40;;;3.70;99.90;;;;;;4878116;29;20214;-73
2023/02/08 12:22:27;;;;;;;5.05;3.22;;;3.70;99.90;;;;;;4871528;29;20186;-72
2023/02/08 12:25:21;;;;;;;4.95;3.72;;;3.70;99.90;;;;;;4889196;29;20297;-73
2023/02/08 12:28:02;;;;;;;4.53;3.33;;;3.70;99.90;;;;;;4885922;29;20226;-73
2023/02/08 12:30:46;;;;;;;4.50;3.65;;;3.80;99.90;;;;;;4888510;29;20292;-73
2023/02/08 12:33:57;;;;;;;4.63;3.33;;;3.80;99.90;;;;;;4866548;29;20241;-73
2023/02/08 12:36:36;;;;;;;4.60;3.20;;;3.80;99.90;;;;;;4891615;29;20222;-73
2023/02/08 12:42:19;;;;;;;4.68;3.35;;;3.80;99.90;;;;;;4882809;29;20400;-72
2023/02/08 12:45:22;;;;;;;4.60;3.33;;;3.90;99.90;;;;;;4862200;29;20700;-73
2023/02/08 12:48:02;;;;;;;6.60;3.70;;;3.90;99.90;;;;;;4872268;29;20673;-74
2023/02/08 12:50:42;;;;;;;4.85;3.40;;;3.90;99.90;;;;;;4870816;29;20758;-73
2023/02/08 12:53:14;;;;;;;6.25;3.60;;;3.90;99.90;;;;;;4880262;29;20186;-73
2023/02/08 12:55:45;;;;;;;4.95;3.47;;;3.90;99.90;;;;;;4892967;29;20218;-73
2023/02/08 12:58:30;;;;;;;5.10;3.20;;;3.90;99.90;;;;;;4879972;29;20596;-73
2023/02/08 13:01:11;;;;;;;4.10;3.28;;;4.00;99.90;;;;;;4892866;29;20261;-73
2023/02/08 13:03:37;;;;;;;4.20;3.17;;;4.00;99.90;;;;;;4862000;29;20198;-73
2023/02/08 13:06:12;;;;;;;6.13;4.10;;;4.00;99.90;;;;;;4887471;29;20226;-73
2023/02/08 13:09:02;;;;;;;5.40;3.67;;;4.00;99.90;;;;;;4860488;29;20194;-73
2023/02/08 13:11:54;;;;;;;4.55;3.20;;;4.00;99.90;;;;;;4862320;29;20195;-73
2023/02/08 13:14:34;;;;;;;5.07;3.65;;;4.00;99.90;;;;;;4866668;29;20209;-73
2023/02/08 13:17:19;;;;;;;5.72;3.70;;;4.00;99.90;;;;;;4886854;29;20699;-73
2023/02/08 13:20:01;;;;;;;4.65;3.30;;;4.10;99.90;;;;;;4873438;29;20215;-73
2023/02/08 13:22:39;;;;;;;5.93;3.58;;;4.10;99.90;;;;;;4867261;29;20194;-73
2023/02/08 13:25:14;;;;;;;3.78;3.20;;;4.10;99.90;;;;;;4867344;29;20209;-73
2023/02/08 13:27:42;;;;;;;3.85;3.33;;;4.10;99.90;;;;;;4863910;29;20192;-73